createdAt,value
2023-05-11T00:01:26.936Z,19.92
2023-05-11T00:03:56.009Z,17.80
2023-05-11T00:06:24.265Z,18.98
2023-05-11T00:08:52.163Z,18.85
2023-05-11T00:11:19.838Z,19.80
2023-05-11T00:13:48.953Z,17.02
2023-05-11T00:16:16.813Z,21.00
2023-05-11T00:18:45.034Z,19.10
2023-05-11T00:21:12.744Z,17.60
2023-05-11T00:23:40.433Z,18.38
2023-05-11T00:26:08.136Z,18.92
2023-05-11T00:28:36.016Z,17.42
2023-05-11T00:31:05.240Z,17.13
2023-05-11T00:33:32.993Z,17.10
2023-05-11T00:36:00.717Z,14.45
2023-05-11T00:38:28.508Z,14.57
2023-05-11T00:40:56.755Z,15.95
2023-05-11T00:43:24.459Z,16.00
2023-05-11T00:45:53.449Z,15.32
2023-05-11T00:48:22.895Z,17.10
2023-05-11T00:50:51.239Z,16.33
2023-05-11T00:53:19.114Z,15.80
2023-05-11T00:55:47.116Z,14.23
2023-05-11T00:58:16.024Z,13.15
2023-05-11T01:00:44.424Z,14.70
2023-05-11T01:03:13.100Z,13.38
2023-05-11T01:05:47.970Z,14.60
2023-05-11T01:08:21.323Z,12.52
2023-05-11T01:10:56.344Z,13.30
2023-05-11T01:13:30.048Z,11.63
2023-05-11T01:15:58.133Z,12.50
2023-05-11T01:18:29.916Z,10.98
2023-05-11T01:21:01.363Z,13.07
2023-05-11T01:24:00.324Z,11.13
2023-05-11T01:26:38.002Z,10.20
2023-05-11T01:29:41.999Z,8.07
2023-05-11T01:32:17.809Z,9.75
2023-05-11T01:34:46.264Z,10.30
2023-05-11T01:37:19.509Z,10.48
2023-05-11T01:39:54.083Z,10.05
2023-05-11T01:42:25.216Z,9.50
2023-05-11T01:44:55.979Z,8.02
2023-05-11T01:47:27.224Z,8.38
2023-05-11T01:49:57.917Z,8.55
2023-05-11T01:52:28.075Z,8.68
2023-05-11T01:54:56.866Z,7.97
2023-05-11T01:57:25.319Z,8.27
2023-05-11T01:59:54.684Z,7.07
2023-05-11T02:02:23.888Z,7.25
2023-05-11T02:04:54.535Z,7.90
2023-05-11T02:07:24.989Z,7.68
2023-05-11T02:09:54.330Z,7.82
2023-05-11T02:12:23.553Z,7.43
2023-05-11T02:14:52.650Z,7.70
2023-05-11T02:17:23.383Z,6.85
2023-05-11T02:19:54.323Z,7.05
2023-05-11T02:22:23.876Z,9.80
2023-05-11T02:24:51.840Z,6.85
2023-05-11T02:27:19.712Z,7.38
2023-05-11T02:29:48.458Z,7.82
2023-05-11T02:32:19.310Z,5.65
2023-05-11T02:34:55.499Z,8.07
2023-05-11T02:37:27.373Z,6.93
2023-05-11T02:40:00.658Z,6.55
2023-05-11T02:42:30.907Z,6.63
2023-05-11T02:45:03.204Z,6.07
2023-05-11T02:47:33.677Z,6.45
2023-05-11T02:50:04.812Z,7.47
2023-05-11T02:52:34.389Z,6.72
2023-05-11T02:55:04.299Z,6.20
2023-05-11T02:57:32.432Z,7.18
2023-05-11T03:00:01.773Z,7.25
2023-05-11T03:02:29.453Z,7.75
2023-05-11T03:04:57.183Z,8.23
2023-05-11T03:07:24.992Z,6.07
2023-05-11T03:09:54.295Z,8.07
2023-05-11T03:12:22.318Z,7.47
2023-05-11T03:14:50.687Z,7.15
2023-05-11T03:17:20.898Z,5.82
2023-05-11T03:19:49.293Z,6.45
2023-05-11T03:22:17.353Z,7.22
2023-05-11T03:24:45.867Z,7.40
2023-05-11T03:27:15.245Z,7.18
2023-05-11T03:29:45.330Z,7.75
2023-05-11T03:32:13.464Z,6.22
2023-05-11T03:34:41.257Z,6.85
2023-05-11T03:37:11.982Z,6.80
2023-05-11T03:39:42.418Z,7.68
2023-05-11T03:42:12.250Z,7.13
2023-05-11T03:44:43.343Z,8.13
2023-05-11T03:47:11.827Z,7.80
2023-05-11T03:49:40.694Z,7.40
2023-05-11T03:52:09.296Z,7.78
2023-05-11T03:54:37.245Z,6.20
2023-05-11T03:57:05.313Z,6.35
2023-05-11T03:59:32.885Z,6.72
2023-05-11T04:02:01.961Z,5.82
2023-05-11T04:04:30.804Z,6.55
2023-05-11T04:06:59.471Z,6.90
2023-05-11T04:09:27.269Z,6.88
2023-05-11T04:11:55.067Z,6.55
2023-05-11T04:14:22.669Z,7.18
2023-05-11T04:16:50.326Z,7.78
2023-05-11T04:19:19.483Z,7.47
2023-05-11T04:21:48.132Z,7.53
2023-05-11T04:24:17.545Z,8.45
2023-05-11T04:26:45.580Z,7.32
2023-05-11T04:29:13.302Z,6.35
2023-05-11T04:31:41.123Z,9.27
2023-05-11T04:34:08.951Z,8.23
2023-05-11T04:36:38.463Z,9.50
2023-05-11T04:39:07.780Z,7.75
2023-05-11T04:41:35.648Z,7.38
2023-05-11T04:44:04.009Z,6.95
2023-05-11T04:46:31.885Z,8.98
2023-05-11T04:48:59.576Z,6.30
2023-05-11T04:51:27.473Z,8.45
2023-05-11T04:53:56.946Z,7.50
2023-05-11T04:56:24.618Z,8.60
2023-05-11T04:58:52.276Z,6.93
2023-05-11T05:01:19.963Z,9.68
2023-05-11T05:03:49.562Z,7.80
2023-05-11T05:06:17.381Z,11.32
2023-05-11T05:08:45.023Z,7.95
2023-05-11T05:11:13.922Z,10.20
2023-05-11T05:13:41.518Z,8.25
2023-05-11T05:16:09.408Z,9.18
2023-05-11T05:18:43.806Z,11.15
2023-05-11T05:21:11.603Z,9.85
2023-05-11T05:23:39.245Z,9.73
2023-05-11T05:26:06.947Z,9.98
2023-05-11T05:28:36.660Z,11.48
2023-05-11T05:31:04.547Z,10.77
2023-05-11T05:33:32.273Z,10.63
2023-05-11T05:36:01.053Z,11.20
2023-05-11T05:38:28.785Z,11.18
2023-05-11T05:40:56.768Z,11.13
2023-05-11T05:43:24.400Z,11.57
2023-05-11T05:45:53.492Z,11.95
2023-05-11T05:48:21.649Z,14.70
2023-05-11T05:50:49.311Z,15.43
2023-05-11T05:53:17.121Z,12.73
2023-05-11T05:55:44.759Z,14.23
2023-05-11T05:58:12.483Z,15.95
2023-05-11T06:00:40.742Z,14.15
2023-05-11T06:03:09.861Z,14.65
2023-05-11T06:05:37.546Z,15.73
2023-05-11T06:08:10.464Z,14.93
2023-05-11T06:10:39.209Z,13.82
2023-05-11T06:13:09.661Z,14.73
2023-05-11T06:15:37.686Z,14.70
2023-05-11T06:18:05.876Z,16.25
2023-05-11T06:20:35.511Z,17.50
2023-05-11T06:23:03.427Z,14.82
2023-05-11T06:25:31.729Z,17.15
2023-05-11T06:27:59.525Z,14.00
2023-05-11T06:30:27.545Z,14.82
2023-05-11T06:32:55.416Z,14.85
2023-05-11T06:35:23.585Z,16.13
2023-05-11T06:37:52.680Z,16.10
2023-05-11T06:40:20.993Z,14.52
2023-05-11T06:42:48.811Z,18.35
2023-05-11T06:45:16.904Z,17.13
2023-05-11T06:47:45.020Z,18.00
2023-05-11T06:50:13.053Z,16.35
2023-05-11T06:52:40.887Z,14.57
2023-05-11T06:55:14.109Z,15.70
2023-05-11T06:57:41.979Z,17.40
2023-05-11T07:00:10.757Z,16.67
2023-05-11T07:02:38.792Z,17.63
2023-05-11T07:05:06.808Z,15.18
2023-05-11T07:07:34.470Z,17.63
2023-05-11T07:10:02.129Z,17.80
2023-05-11T07:12:31.424Z,13.27
2023-05-11T07:14:59.286Z,17.30
2023-05-11T07:17:28.527Z,14.45
2023-05-11T07:19:56.333Z,15.80
2023-05-11T07:22:24.035Z,16.17
2023-05-11T07:24:52.286Z,12.90
2023-05-11T07:27:20.071Z,18.20
2023-05-11T07:29:49.133Z,13.75
2023-05-11T07:32:16.990Z,15.13
2023-05-11T07:34:45.828Z,13.90
2023-05-11T07:37:13.671Z,12.75
2023-05-11T07:39:41.624Z,13.60
2023-05-11T07:42:09.277Z,13.32
2023-05-11T07:44:37.069Z,14.32
2023-05-11T07:47:06.287Z,12.98
2023-05-11T07:49:42.841Z,14.65
2023-05-11T07:52:11.959Z,12.93
2023-05-11T07:54:40.358Z,11.93
2023-05-11T07:57:08.401Z,13.05
2023-05-11T07:59:36.595Z,11.88
2023-05-11T08:02:06.663Z,13.20
2023-05-11T08:04:34.747Z,14.23
2023-05-11T08:07:02.376Z,11.63
2023-05-11T08:09:30.037Z,13.48
2023-05-11T08:11:58.299Z,12.70
2023-05-11T08:14:26.391Z,12.77
2023-05-11T08:16:54.569Z,12.07
2023-05-11T08:19:23.701Z,11.15
2023-05-11T08:21:51.304Z,12.75
2023-05-11T08:24:19.075Z,12.65
2023-05-11T08:26:47.152Z,11.35
2023-05-11T08:29:15.929Z,11.82
2023-05-11T08:31:43.894Z,9.48
2023-05-11T08:34:19.237Z,11.02
2023-05-11T08:36:48.966Z,9.45
2023-05-11T08:39:28.322Z,9.27
2023-05-11T08:42:05.192Z,11.32
2023-05-11T08:44:37.601Z,9.65
2023-05-11T08:47:22.015Z,8.77
2023-05-11T08:49:52.321Z,8.88
2023-05-11T08:52:21.529Z,11.30
2023-05-11T08:54:51.579Z,7.38
2023-05-11T08:57:21.661Z,9.15
2023-05-11T08:59:51.982Z,8.85
2023-05-11T09:02:21.475Z,8.20
2023-05-11T09:04:50.976Z,8.25
2023-05-11T09:07:21.583Z,8.82
2023-05-11T09:09:49.266Z,7.10
2023-05-11T09:12:17.639Z,5.72
2023-05-11T09:14:46.986Z,9.23
2023-05-11T09:17:14.942Z,7.82
2023-05-11T09:19:58.620Z,7.80
2023-05-11T09:22:30.304Z,7.20
2023-05-11T09:25:00.364Z,6.50
2023-05-11T09:27:28.124Z,8.02
2023-05-11T09:29:55.862Z,7.35
2023-05-11T09:32:23.823Z,7.22
2023-05-11T09:34:51.792Z,7.32
2023-05-11T09:37:20.244Z,7.13
2023-05-11T09:40:18.086Z,5.68
2023-05-11T09:42:43.154Z,7.40
2023-05-11T09:45:11.629Z,7.30
2023-05-11T09:47:41.347Z,7.03
2023-05-11T09:50:18.141Z,6.53
2023-05-11T09:52:51.990Z,6.75
2023-05-11T09:55:21.112Z,5.32
2023-05-11T09:57:55.633Z,7.70
2023-05-11T10:00:25.150Z,8.10
2023-05-11T10:03:03.371Z,5.97
2023-05-11T10:05:32.731Z,5.32
2023-05-11T10:08:01.782Z,5.82
2023-05-11T10:10:33.769Z,5.30
2023-05-11T10:13:03.335Z,5.70
2023-05-11T10:15:33.460Z,5.65
2023-05-11T10:18:01.700Z,5.78
2023-05-11T10:20:29.387Z,6.43
2023-05-11T10:22:57.374Z,7.25
2023-05-11T10:25:26.461Z,7.65
2023-05-11T10:27:56.339Z,5.47
2023-05-11T10:30:25.147Z,8.65
2023-05-11T10:32:56.379Z,9.50
2023-05-11T10:35:24.195Z,6.50
2023-05-11T10:37:51.907Z,6.40
2023-05-11T10:40:19.827Z,8.02
2023-05-11T10:43:19.674Z,8.98
2023-05-11T10:45:57.893Z,8.40
2023-05-11T10:48:50.284Z,10.80
2023-05-11T10:51:34.449Z,9.00
2023-05-11T10:54:18.947Z,8.95
2023-05-11T10:57:09.981Z,10.02
2023-05-11T11:00:09.623Z,8.50
2023-05-11T11:02:38.355Z,9.07
2023-05-11T11:05:10.570Z,8.40
2023-05-11T11:07:57.519Z,8.27
2023-05-11T11:10:32.578Z,9.25
2023-05-11T11:13:05.921Z,8.50
2023-05-11T11:16:15.487Z,7.28
2023-05-11T11:18:44.317Z,6.38
2023-05-11T11:21:15.622Z,8.90
2023-05-11T11:23:50.073Z,6.95
2023-05-11T11:26:21.084Z,8.45
2023-05-11T11:29:09.686Z,8.25
2023-05-11T11:31:39.580Z,8.50
2023-05-11T11:34:39.270Z,8.43
2023-05-11T11:37:09.828Z,8.57
2023-05-11T11:40:14.081Z,9.73
2023-05-11T11:42:44.172Z,9.38
2023-05-11T11:45:29.859Z,9.55
2023-05-11T11:48:10.056Z,8.57
2023-05-11T11:50:37.875Z,10.98
2023-05-11T11:53:05.523Z,10.10
2023-05-11T11:55:47.942Z,7.78
2023-05-11T11:58:48.911Z,9.93
2023-05-11T12:01:18.970Z,10.55
2023-05-11T12:03:54.676Z,7.95
2023-05-11T12:06:24.445Z,8.35
2023-05-11T12:08:54.819Z,9.20
2023-05-11T12:11:23.094Z,9.80
2023-05-11T12:13:51.082Z,9.75
2023-05-11T12:16:19.135Z,12.48
2023-05-11T12:18:55.091Z,7.43
2023-05-11T12:21:24.311Z,9.50
2023-05-11T12:23:54.670Z,8.32
2023-05-11T12:26:23.527Z,8.30
2023-05-11T12:28:52.356Z,7.57
2023-05-11T12:31:21.028Z,11.05
2023-05-11T12:33:49.184Z,7.55
2023-05-11T12:36:20.288Z,7.05
2023-05-11T12:38:49.408Z,6.00
2023-05-11T12:41:21.786Z,8.30
2023-05-11T12:43:50.058Z,6.53
2023-05-11T12:46:19.489Z,6.95
2023-05-11T12:48:48.174Z,4.80
2023-05-11T12:51:47.885Z,7.38
2023-05-11T12:54:29.870Z,6.90
2023-05-11T12:56:58.206Z,4.97
2023-05-11T12:59:31.482Z,5.68
2023-05-11T13:02:07.456Z,6.85
2023-05-11T13:04:35.153Z,6.03
2023-05-11T13:07:04.873Z,6.65
2023-05-11T13:09:32.756Z,7.78
2023-05-11T13:12:15.864Z,7.93
2023-05-11T13:14:44.413Z,5.70
2023-05-11T13:17:12.636Z,6.15
2023-05-11T13:19:40.812Z,7.38
2023-05-11T13:22:12.597Z,10.95
2023-05-11T13:24:40.184Z,5.75
2023-05-11T13:27:07.937Z,7.30
2023-05-11T13:29:38.448Z,7.65
2023-05-11T13:32:07.000Z,8.50
2023-05-11T13:34:36.780Z,7.22
2023-05-11T13:37:04.542Z,10.15
2023-05-11T13:39:33.725Z,9.02
2023-05-11T13:42:01.293Z,8.85
2023-05-11T13:44:29.556Z,8.65
2023-05-11T13:46:57.280Z,7.90
2023-05-11T13:49:25.014Z,8.25
2023-05-11T13:51:52.715Z,8.20
2023-05-11T13:54:21.266Z,11.40
2023-05-11T13:56:50.403Z,10.05
2023-05-11T13:59:18.525Z,8.65
2023-05-11T14:01:46.489Z,7.97
2023-05-11T14:04:14.588Z,8.27
2023-05-11T14:06:43.025Z,8.68
2023-05-11T14:09:10.668Z,8.82
2023-05-11T14:11:39.742Z,9.02
2023-05-11T14:14:09.090Z,8.20
2023-05-11T14:16:37.181Z,9.95
2023-05-11T14:19:05.092Z,8.63
2023-05-11T14:21:33.273Z,10.68
2023-05-11T14:24:11.478Z,9.80
2023-05-11T14:26:40.319Z,8.77
2023-05-11T14:29:09.325Z,10.55
2023-05-11T14:31:38.074Z,12.43
2023-05-11T14:34:06.132Z,10.23
2023-05-11T14:36:34.013Z,10.00
2023-05-11T14:39:02.623Z,11.98
2023-05-11T14:41:30.687Z,12.63
2023-05-11T14:43:58.428Z,12.88
2023-05-11T14:46:27.588Z,11.98
2023-05-11T14:48:55.458Z,9.60
2023-05-11T14:51:23.398Z,13.05
2023-05-11T14:53:52.249Z,12.07
2023-05-11T14:56:20.189Z,14.05
2023-05-11T14:58:47.885Z,13.52
2023-05-11T15:01:15.622Z,12.77
2023-05-11T15:03:45.083Z,11.15
2023-05-11T15:06:15.202Z,13.77
2023-05-11T15:08:42.904Z,13.93
2023-05-11T15:11:10.759Z,11.15
2023-05-11T15:13:38.529Z,10.30
2023-05-11T15:16:07.191Z,12.63
2023-05-11T15:18:35.114Z,12.68
2023-05-11T15:21:05.892Z,10.48
2023-05-11T15:23:33.755Z,10.73
2023-05-11T15:26:02.079Z,12.77
2023-05-11T15:28:29.936Z,12.82
2023-05-11T15:30:57.674Z,11.65
2023-05-11T15:33:25.610Z,11.45
2023-05-11T15:35:53.371Z,10.95
2023-05-11T15:38:22.585Z,11.20
2023-05-11T15:40:50.663Z,11.82
2023-05-11T15:43:18.807Z,11.05
2023-05-11T15:45:47.814Z,10.35
2023-05-11T15:48:15.784Z,13.82
2023-05-11T15:50:43.498Z,13.50
2023-05-11T15:53:11.526Z,14.60
2023-05-11T15:55:45.084Z,8.75
2023-05-11T15:58:13.675Z,13.35
2023-05-11T16:00:41.721Z,10.10
2023-05-11T16:03:09.488Z,10.85
2023-05-11T16:05:38.317Z,10.27
2023-05-11T16:08:07.179Z,9.85
2023-05-11T16:10:34.903Z,9.68
2023-05-11T16:13:04.085Z,11.25
2023-05-11T16:15:33.009Z,10.40
2023-05-11T16:18:03.993Z,10.93
2023-05-11T16:20:32.780Z,10.75
2023-05-11T16:23:00.689Z,10.25
2023-05-11T16:25:28.497Z,14.80
2023-05-11T16:27:56.565Z,10.98
2023-05-11T16:30:26.445Z,9.52
2023-05-11T16:32:54.327Z,10.27
2023-05-11T16:35:22.414Z,8.40
2023-05-11T16:37:50.401Z,10.25
2023-05-11T16:40:21.235Z,8.65
2023-05-11T16:42:49.435Z,10.57
2023-05-11T16:45:17.580Z,10.50
2023-05-11T16:47:46.680Z,10.50
2023-05-11T16:50:16.145Z,10.52
2023-05-11T16:52:44.562Z,10.70
2023-05-11T16:55:12.820Z,12.15
2023-05-11T16:57:40.611Z,8.90
2023-05-11T17:00:09.913Z,10.18
2023-05-11T17:02:37.990Z,9.88
2023-05-11T17:05:08.638Z,9.52
2023-05-11T17:07:36.408Z,14.88
2023-05-11T17:10:05.268Z,10.30
2023-05-11T17:12:35.676Z,9.95
2023-05-11T17:15:03.694Z,11.20
2023-05-11T17:17:31.447Z,12.50
2023-05-11T17:19:59.532Z,12.00
2023-05-11T17:22:29.632Z,11.55
2023-05-11T17:24:57.449Z,12.40
2023-05-11T17:27:25.530Z,10.55
2023-05-11T17:29:53.373Z,11.65
2023-05-11T17:32:21.357Z,12.25
2023-05-11T17:34:49.347Z,11.90
2023-05-11T17:37:30.600Z,11.77
2023-05-11T17:40:01.853Z,11.55
2023-05-11T17:42:29.561Z,11.85
2023-05-11T17:44:57.596Z,11.40
2023-05-11T17:47:25.893Z,13.80
2023-05-11T17:49:53.915Z,13.48
2023-05-11T17:52:22.469Z,12.02
2023-05-11T17:54:50.987Z,11.25
2023-05-11T17:57:20.300Z,11.80
2023-05-11T17:59:48.370Z,13.48
2023-05-11T18:02:17.026Z,13.48
2023-05-11T18:04:45.236Z,13.82
2023-05-11T18:07:13.116Z,10.73
2023-05-11T18:09:40.893Z,11.60
2023-05-11T18:12:09.606Z,12.75
2023-05-11T18:14:38.635Z,13.57
2023-05-11T18:17:06.622Z,13.32
2023-05-11T18:19:34.483Z,12.73
2023-05-11T18:22:02.670Z,10.02
2023-05-11T18:24:30.592Z,13.57
2023-05-11T18:26:58.570Z,13.05
2023-05-11T18:29:26.967Z,13.40
2023-05-11T18:31:56.083Z,13.65
2023-05-11T18:34:24.799Z,14.27
2023-05-11T18:36:52.812Z,15.43
2023-05-11T18:39:20.720Z,13.10
2023-05-11T18:41:48.491Z,14.23
2023-05-11T18:44:16.386Z,12.70
2023-05-11T18:46:44.504Z,12.45
2023-05-11T18:49:14.453Z,15.82
2023-05-11T18:51:42.256Z,14.07
2023-05-11T18:54:10.060Z,11.50
2023-05-11T18:56:38.154Z,12.27
2023-05-11T18:59:05.968Z,13.73
2023-05-11T19:01:46.748Z,13.70
2023-05-11T19:04:19.951Z,12.75
2023-05-11T19:06:47.882Z,12.38
2023-05-11T19:09:15.538Z,13.68
2023-05-11T19:11:44.406Z,12.18
2023-05-11T19:14:14.944Z,12.30
2023-05-11T19:16:43.216Z,12.60
2023-05-11T19:19:11.499Z,12.90
2023-05-11T19:21:42.586Z,15.35
2023-05-11T19:24:11.518Z,16.65
2023-05-11T19:26:39.513Z,15.30
2023-05-11T19:29:09.366Z,14.52
2023-05-11T19:31:37.433Z,13.50
2023-05-11T19:34:06.658Z,16.65
2023-05-11T19:36:34.581Z,15.57
2023-05-11T19:39:04.758Z,14.73
2023-05-11T19:41:33.322Z,14.98
2023-05-11T19:44:01.376Z,14.38
2023-05-11T19:46:29.541Z,13.88
2023-05-11T19:48:57.608Z,15.00
2023-05-11T19:51:25.501Z,15.48
2023-05-11T19:53:53.890Z,13.68
2023-05-11T19:56:22.868Z,16.85
2023-05-11T19:58:50.744Z,16.67
2023-05-11T20:01:18.643Z,16.63
2023-05-11T20:03:46.888Z,17.50
2023-05-11T20:06:15.445Z,16.60
2023-05-11T20:08:43.228Z,20.60
2023-05-11T20:11:11.078Z,16.88
2023-05-11T20:13:40.082Z,15.85
2023-05-11T20:16:09.007Z,16.02
2023-05-11T20:18:37.049Z,15.75
2023-05-11T20:21:05.141Z,16.85
2023-05-11T20:23:33.301Z,16.67
2023-05-11T20:26:02.432Z,13.93
2023-05-11T20:28:30.203Z,17.23
2023-05-11T20:30:59.526Z,14.63
2023-05-11T20:35:59.278Z,17.45
2023-05-11T20:38:27.566Z,17.63
2023-05-11T20:40:57.813Z,19.63
2023-05-11T20:43:26.599Z,22.17
2023-05-11T20:45:55.245Z,19.08
2023-05-11T20:48:38.537Z,21.90
2023-05-11T20:51:08.001Z,18.70
2023-05-11T20:53:35.999Z,17.38
2023-05-11T20:56:03.699Z,15.80
2023-05-11T20:58:31.844Z,18.05
2023-05-11T21:00:59.599Z,18.63
2023-05-11T21:03:28.697Z,16.00
2023-05-11T21:05:56.817Z,17.10
2023-05-11T21:08:24.655Z,18.73
2023-05-11T21:10:53.086Z,16.50
2023-05-11T21:13:20.728Z,15.07
2023-05-11T21:15:48.507Z,18.85
2023-05-11T21:18:16.370Z,15.57
2023-05-11T21:20:45.475Z,15.35
2023-05-11T21:23:14.180Z,14.68
2023-05-11T21:25:42.058Z,15.50
2023-05-11T21:28:09.760Z,13.57
2023-05-11T21:30:37.493Z,17.88
2023-05-11T21:33:05.163Z,20.40
2023-05-11T21:35:32.944Z,15.13
2023-05-11T21:38:03.110Z,16.33
2023-05-11T21:40:30.725Z,14.68
2023-05-11T21:42:58.348Z,14.60
2023-05-11T21:45:26.059Z,13.75
2023-05-11T21:47:53.782Z,15.15
2023-05-11T21:50:21.557Z,14.07
2023-05-11T21:52:49.395Z,12.88
2023-05-11T21:55:18.570Z,15.15
2023-05-11T21:57:46.228Z,13.43
2023-05-11T22:00:18.593Z,12.50
2023-05-11T22:02:46.675Z,12.38
2023-05-11T22:05:14.298Z,14.15
2023-05-11T22:07:42.018Z,14.73
2023-05-11T22:10:10.597Z,14.82
2023-05-11T22:12:39.694Z,13.75
2023-05-11T22:15:08.764Z,11.90
2023-05-11T22:17:37.476Z,11.25
2023-05-11T22:20:06.429Z,14.13
2023-05-11T22:22:39.673Z,14.85
2023-05-11T22:25:08.733Z,13.23
2023-05-11T22:27:40.326Z,10.98
2023-05-11T22:30:10.824Z,12.90
2023-05-11T22:32:38.485Z,11.88
2023-05-11T22:35:07.355Z,13.68
2023-05-11T22:37:34.998Z,11.32
2023-05-11T22:40:02.853Z,10.68
2023-05-11T22:42:32.644Z,13.25
2023-05-11T22:45:00.354Z,12.38
2023-05-11T22:47:29.472Z,14.45
2023-05-11T22:49:57.443Z,13.65
2023-05-11T22:52:25.150Z,15.90
2023-05-11T22:54:54.510Z,13.02
2023-05-11T22:57:23.991Z,14.13
2023-05-11T22:59:51.760Z,12.43
2023-05-11T23:02:19.767Z,14.68
2023-05-11T23:04:52.118Z,12.68
2023-05-11T23:07:19.924Z,13.43
2023-05-11T23:09:49.696Z,11.93
2023-05-11T23:12:18.254Z,12.02
2023-05-11T23:14:45.842Z,14.52
2023-05-11T23:17:13.785Z,13.82
2023-05-11T23:19:41.592Z,16.77
2023-05-11T23:22:10.571Z,15.57
2023-05-11T23:24:38.271Z,16.70
2023-05-11T23:27:06.333Z,15.05
2023-05-11T23:29:33.941Z,13.88
2023-05-11T23:32:03.375Z,16.38
2023-05-11T23:34:31.061Z,14.07
2023-05-11T23:36:58.743Z,16.67
2023-05-11T23:39:27.729Z,14.90
2023-05-11T23:41:55.310Z,15.45
2023-05-11T23:44:23.073Z,16.92
2023-05-11T23:46:50.777Z,17.52
2023-05-11T23:49:18.639Z,20.80
2023-05-11T23:51:46.229Z,18.15
2023-05-11T23:54:14.093Z,20.45
2023-05-11T23:56:44.149Z,24.20
2023-05-11T23:59:11.790Z,20.00
